エカテリンブルク の空港の天気 - METARとTAF

コルツォヴォ空港 ( USSS / SVX ) - ロシア エカテリンブルク
飛行場実況気象(Metar)
観測時間11/18 13:30 YEKT (11/18 08:30 UTC)
風向・風速北北西 5m/s
視程10km以上
天気現象弱い雪
全天の8割程度の雲 雲底高度 580m
気温-3℃
湿度74%
気圧1026hPa
METARUSSS 180830Z 33005MPS 9999 -SN BKN019 M03/M07 Q1026 R26R/520140 R26L/520250 NOSIG RMK QFE748/0998
過去の天気等 Google飛行場航空写真 Wunderground天気予報

過去48時間のMETAR

飛行場予報(TAF)
発表時間: 11/18 12:54 YEKT (11/18 07:54 UTC)
予報対象時間: 18日14時 YEKT ~ 19日14時 YEKT
風向・風速北西 3m/s 瞬間風速 13m/s
視程10km以上
天気現象弱いしゅう雪
全天の8割程度の雲 雲底高度 490m
全天の8割程度の積乱雲 雲底高度 610m
18日17時 YEKT から
風向・風速北 3m/s 瞬間風速 13m/s
視程6000m
天気現象弱いしゅう雪
全天の8割程度の積乱雲 雲底高度 490m
18日20時 YEKT ~ 18日22時 YEKT に徐々に
風向・風速北東 3m/s 瞬間風速 10m/s
TAF USSS 180754Z 1809/1909 32003G13MPS 9999 -SHSN BKN016 BKN020CB
FM181200 36003G13MPS 6000 -SHSN BKN016CB
BECMG 1815/1817 04003G10MPS